AFL9371 UUWW-UWKD
Flight info
| Callsign | AFL9371 |
|---|---|
| Flight time | N/A |
| Altitude | 37000 |
| Route | KOGOM3D KOGOM L94 EKPIR M864 INKEB L94 UNORO T788 KOROM KOROM1T |
| Aircraft | A20N/M-SDE2E3FGHIRWXY/LB1 |
Departure
| Time | N/A |
|---|---|
| Airport | Vnukovo International Airport (UUWW) |
Arrival
| Time | 2026-05-01 08:14 |
|---|---|
| Airport | Kazan International Airport (UWKD) |
| Time | Latitude | Longitude | Altitude | Speed | Heading |
|---|---|---|---|---|---|
| 2026-05-01 07:23 | 56.03715 | 40.45488 | 32296 ft | 427 kts | 85° |
| 2026-05-01 07:23 | 56.03819 | 40.56145 | 32719 ft | 432 kts | 85° |
| 2026-05-01 07:24 | 56.03869 | 40.61563 | 32928 ft | 434 kts | 85° |
| 2026-05-01 07:24 | 56.03914 | 40.67000 | 33124 ft | 436 kts | 86° |
| 2026-05-01 07:24 | 56.03957 | 40.72400 | 33311 ft | 438 kts | 86° |
| 2026-05-01 07:24 | 56.03999 | 40.77874 | 33491 ft | 440 kts | 86° |
| 2026-05-01 07:25 | 56.04040 | 40.83360 | 33696 ft | 442 kts | 86° |
| 2026-05-01 07:25 | 56.04076 | 40.88837 | 33925 ft | 443 kts | 86° |
| 2026-05-01 07:25 | 56.04110 | 40.94327 | 34180 ft | 442 kts | 86° |
| 2026-05-01 07:25 | 56.04142 | 40.99766 | 34412 ft | 442 kts | 86° |
| 2026-05-01 07:26 | 56.04171 | 41.05259 | 34628 ft | 443 kts | 86° |
| 2026-05-01 07:26 | 56.04197 | 41.10726 | 34833 ft | 444 kts | 87° |
| 2026-05-01 07:26 | 56.04222 | 41.16273 | 35044 ft | 444 kts | 87° |
| 2026-05-01 07:26 | 56.04244 | 41.21767 | 35249 ft | 444 kts | 87° |
| 2026-05-01 07:27 | 56.04263 | 41.27259 | 35461 ft | 444 kts | 87° |
| 2026-05-01 07:27 | 56.04280 | 41.32780 | 35657 ft | 445 kts | 87° |
| 2026-05-01 07:27 | 56.04293 | 41.38242 | 35838 ft | 445 kts | 87° |
| 2026-05-01 07:27 | 56.04306 | 41.43820 | 36011 ft | 446 kts | 87° |
| 2026-05-01 07:28 | 56.04314 | 41.49370 | 36179 ft | 447 kts | 87° |
| 2026-05-01 07:28 | 56.04322 | 41.54907 | 36342 ft | 447 kts | 87° |
| 2026-05-01 07:28 | 56.04326 | 41.60440 | 36494 ft | 448 kts | 87° |
| 2026-05-01 07:28 | 56.04329 | 41.66023 | 36640 ft | 449 kts | 88° |
| 2026-05-01 07:29 | 56.04328 | 41.71583 | 36781 ft | 450 kts | 88° |
| 2026-05-01 07:29 | 56.04326 | 41.77148 | 36928 ft | 451 kts | 88° |
| 2026-05-01 07:29 | 56.04321 | 41.82780 | 37072 ft | 451 kts | 88° |
| 2026-05-01 07:30 | 56.04301 | 41.94057 | 37170 ft | 452 kts | 89° |
| 2026-05-01 07:30 | 56.04272 | 42.05222 | 37174 ft | 452 kts | 89° |
| 2026-05-01 07:31 | 56.04233 | 42.16460 | 37176 ft | 452 kts | 89° |
| 2026-05-01 07:32 | 56.04090 | 42.44535 | 37173 ft | 453 kts | 89° |
| 2026-05-01 07:33 | 56.03950 | 42.61353 | 37170 ft | 453 kts | 89° |
| 2026-05-01 07:33 | 56.03730 | 42.78202 | 37166 ft | 453 kts | 90° |
| 2026-05-01 07:34 | 56.03493 | 42.95052 | 37164 ft | 453 kts | 90° |
| 2026-05-01 07:35 | 56.03323 | 43.06316 | 37162 ft | 453 kts | 90° |
| 2026-05-01 07:35 | 56.03144 | 43.17487 | 37160 ft | 453 kts | 90° |
| 2026-05-01 07:36 | 56.02979 | 43.28750 | 37158 ft | 454 kts | 89° |
| 2026-05-01 07:36 | 56.03285 | 43.39936 | 37158 ft | 454 kts | 83° |
| 2026-05-01 07:37 | 56.04428 | 43.56913 | 37157 ft | 454 kts | 82° |
| 2026-05-01 07:37 | 56.05191 | 43.68175 | 37158 ft | 454 kts | 82° |
| 2026-05-01 07:38 | 56.05607 | 43.74416 | 37158 ft | 454 kts | 82° |
| 2026-05-01 07:39 | 56.06702 | 43.91145 | 37158 ft | 455 kts | 83° |
| 2026-05-01 07:39 | 56.07780 | 44.07994 | 37154 ft | 456 kts | 83° |
| 2026-05-01 07:40 | 56.08484 | 44.19196 | 37146 ft | 457 kts | 83° |
| 2026-05-01 07:40 | 56.09184 | 44.30505 | 37145 ft | 457 kts | 83° |
| 2026-05-01 07:41 | 56.09871 | 44.41775 | 37144 ft | 457 kts | 83° |
| 2026-05-01 07:42 | 56.10875 | 44.58653 | 37147 ft | 457 kts | 83° |
| 2026-05-01 07:42 | 56.11176 | 44.70032 | 37136 ft | 457 kts | 90° |
| 2026-05-01 07:43 | 56.10978 | 44.81398 | 37135 ft | 458 kts | 92° |
| 2026-05-01 07:43 | 56.10614 | 44.98447 | 37121 ft | 459 kts | 92° |
| 2026-05-01 07:44 | 56.10084 | 45.21233 | 37121 ft | 459 kts | 92° |
| 2026-05-01 07:45 | 56.09813 | 45.32657 | 37119 ft | 459 kts | 92° |
| 2026-05-01 07:45 | 56.09531 | 45.44075 | 37120 ft | 460 kts | 92° |
| 2026-05-01 07:46 | 56.09237 | 45.55559 | 37116 ft | 460 kts | 92° |
| 2026-05-01 07:47 | 56.08770 | 45.72928 | 37115 ft | 461 kts | 93° |
| 2026-05-01 07:47 | 56.08444 | 45.84520 | 37115 ft | 460 kts | 93° |
| 2026-05-01 07:48 | 56.07937 | 46.01801 | 37113 ft | 458 kts | 93° |
| 2026-05-01 07:48 | 56.07593 | 46.13113 | 37114 ft | 459 kts | 94° |
| 2026-05-01 07:49 | 56.07052 | 46.30170 | 37120 ft | 460 kts | 93° |
| 2026-05-01 07:50 | 56.06622 | 46.41594 | 37116 ft | 461 kts | 96° |
| 2026-05-01 07:50 | 56.04746 | 46.58452 | 37113 ft | 469 kts | 107° |
| 2026-05-01 07:51 | 56.02571 | 46.69399 | 37114 ft | 469 kts | 112° |
| 2026-05-01 07:51 | 56.01406 | 46.74818 | 36975 ft | 464 kts | 112° |
| 2026-05-01 07:52 | 55.99105 | 46.85493 | 35780 ft | 466 kts | 112° |
| 2026-05-01 07:52 | 55.97941 | 46.90890 | 35041 ft | 468 kts | 112° |
| 2026-05-01 07:52 | 55.96775 | 46.96286 | 34363 ft | 468 kts | 112° |
| 2026-05-01 07:53 | 55.94442 | 47.07052 | 33047 ft | 467 kts | 112° |
| 2026-05-01 07:53 | 55.93278 | 47.12408 | 32473 ft | 467 kts | 112° |
| 2026-05-01 07:53 | 55.92121 | 47.17707 | 31933 ft | 465 kts | 112° |
| 2026-05-01 07:53 | 55.90950 | 47.23064 | 31548 ft | 458 kts | 112° |
| 2026-05-01 07:54 | 55.88655 | 47.33491 | 30798 ft | 448 kts | 112° |
| 2026-05-01 07:55 | 55.85302 | 47.48653 | 29463 ft | 434 kts | 113° |
| 2026-05-01 07:55 | 55.83102 | 47.58525 | 28568 ft | 425 kts | 113° |
| 2026-05-01 07:56 | 55.79884 | 47.72878 | 27158 ft | 411 kts | 114° |
| 2026-05-01 07:56 | 55.77789 | 47.82173 | 26124 ft | 402 kts | 115° |
| 2026-05-01 07:57 | 55.76771 | 47.86685 | 25607 ft | 397 kts | 115° |
| 2026-05-01 07:57 | 55.74742 | 47.95635 | 24554 ft | 388 kts | 115° |
| 2026-05-01 07:58 | 55.72751 | 48.04360 | 23363 ft | 381 kts | 115° |
| 2026-05-01 07:58 | 55.70778 | 48.12978 | 22140 ft | 377 kts | 114° |
| 2026-05-01 07:59 | 55.68829 | 48.21474 | 20939 ft | 372 kts | 113° |
| 2026-05-01 07:59 | 55.66888 | 48.29906 | 19765 ft | 367 kts | 113° |
| 2026-05-01 08:00 | 55.63084 | 48.46287 | 17505 ft | 357 kts | 113° |
| 2026-05-01 08:01 | 55.59551 | 48.57702 | 15810 ft | 352 kts | 120° |
| 2026-05-01 08:01 | 55.58322 | 48.61377 | 15252 ft | 350 kts | 119° |
| 2026-05-01 08:01 | 55.57091 | 48.65053 | 14697 ft | 349 kts | 120° |
| 2026-05-01 08:02 | 55.54634 | 48.72395 | 13621 ft | 344 kts | 120° |
| 2026-05-01 08:02 | 55.53426 | 48.76002 | 13112 ft | 341 kts | 120° |
| 2026-05-01 08:03 | 55.51035 | 48.83126 | 12132 ft | 334 kts | 120° |
| 2026-05-01 08:03 | 55.49880 | 48.86558 | 11761 ft | 327 kts | 120° |
| 2026-05-01 08:03 | 55.47613 | 48.93279 | 10896 ft | 310 kts | 120° |
| 2026-05-01 08:04 | 55.45490 | 48.99549 | 9774 ft | 287 kts | 120° |
| 2026-05-01 08:04 | 55.43513 | 49.05380 | 8978 ft | 271 kts | 119° |
| 2026-05-01 08:05 | 55.41618 | 49.10954 | 8310 ft | 263 kts | 119° |
| 2026-05-01 08:05 | 55.40691 | 49.13675 | 8006 ft | 260 kts | 118° |
| 2026-05-01 08:05 | 55.39761 | 49.16403 | 7699 ft | 257 kts | 118° |
| 2026-05-01 08:06 | 55.37960 | 49.21672 | 7100 ft | 250 kts | 118° |
| 2026-05-01 08:06 | 55.36199 | 49.26815 | 6526 ft | 243 kts | 118° |
| 2026-05-01 08:07 | 55.34652 | 49.31975 | 5903 ft | 234 kts | 95° |
| 2026-05-01 08:07 | 55.36068 | 49.36445 | 5341 ft | 219 kts | 32° |
| 2026-05-01 08:08 | 55.37322 | 49.37870 | 5080 ft | 216 kts | 34° |
| 2026-05-01 08:08 | 55.39745 | 49.40889 | 4544 ft | 211 kts | 36° |
| 2026-05-01 08:09 | 55.42102 | 49.43860 | 4017 ft | 207 kts | 31° |
| 2026-05-01 08:09 | 55.43340 | 49.45016 | 3890 ft | 200 kts | 26° |
| 2026-05-01 08:09 | 55.44611 | 49.46069 | 3687 ft | 200 kts | 25° |
| 2026-05-01 08:10 | 55.47112 | 49.48119 | 3264 ft | 199 kts | 25° |
| 2026-05-01 08:10 | 55.49612 | 49.50180 | 2856 ft | 199 kts | 25° |
| 2026-05-01 08:11 | 55.52244 | 49.51000 | 2395 ft | 201 kts | 331° |
| 2026-05-01 08:11 | 55.53721 | 49.46745 | 2461 ft | 211 kts | 296° |
| 2026-05-01 08:12 | 55.55046 | 49.42342 | 2194 ft | 195 kts | 304° |
| 2026-05-01 08:12 | 55.55775 | 49.40365 | 1919 ft | 188 kts | 306° |
| 2026-05-01 08:12 | 55.57199 | 49.36721 | 1353 ft | 169 kts | 306° |
| 2026-05-01 08:13 | 55.57829 | 49.35088 | 1137 ft | 154 kts | 306° |
| 2026-05-01 08:13 | 55.58412 | 49.33580 | 918 ft | 140 kts | 306° |
| 2026-05-01 08:13 | 55.59463 | 49.30887 | 564 ft | 134 kts | 304° |
| 2026-05-01 08:14 | 55.59988 | 49.29549 | 423 ft | 125 kts | 308° |
| 2026-05-01 08:14 | 55.60369 | 49.28567 | 422 ft | 57 kts | 302° |
| 2026-05-01 08:14 | 55.60484 | 49.28240 | 422 ft | 25 kts | 304° |
| 2026-05-01 08:14 | 55.60592 | 49.27965 | 422 ft | 28 kts | 300° |
| 2026-05-01 08:15 | 55.60709 | 49.27653 | 422 ft | 31 kts | 304° |
| 2026-05-01 08:15 | 55.60965 | 49.27002 | 422 ft | 30 kts | 303° |
| 2026-05-01 08:15 | 55.61098 | 49.26791 | 422 ft | 25 kts | 12° |
| 2026-05-01 08:16 | 55.61217 | 49.26960 | 422 ft | 19 kts | 86° |
| 2026-05-01 08:16 | 55.61150 | 49.27194 | 422 ft | 23 kts | 121° |
| 2026-05-01 08:16 | 55.61051 | 49.27447 | 422 ft | 26 kts | 123° |
| 2026-05-01 08:16 | 55.60944 | 49.27728 | 422 ft | 29 kts | 124° |
| 2026-05-01 08:17 | 55.60843 | 49.27995 | 422 ft | 13 kts | 122° |
| 2026-05-01 08:17 | 55.60810 | 49.28088 | 422 ft | 10 kts | 122° |
| 2026-05-01 08:17 | 55.60755 | 49.28225 | 422 ft | 16 kts | 124° |
| 2026-05-01 08:17 | 55.60680 | 49.28412 | 422 ft | 20 kts | 125° |
| 2026-05-01 08:18 | 55.60598 | 49.28647 | 422 ft | 23 kts | 109° |
| 2026-05-01 08:18 | 55.60578 | 49.29170 | 422 ft | 17 kts | 86° |
| 2026-05-01 08:19 | 55.60659 | 49.29423 | 422 ft | 9 kts | 120° |
| 2026-05-01 08:19 | 55.60618 | 49.29523 | 422 ft | 10 kts | 125° |
| 2026-05-01 08:19 | 55.60606 | 49.29646 | 422 ft | 11 kts | 65° |
| 2026-05-01 08:19 | 55.60663 | 49.29749 | 421 ft | 10 kts | 37° |
| 2026-05-01 08:20 | 55.60661 | 49.29868 | 422 ft | 11 kts | 120° |
| 2026-05-01 08:20 | 55.60661 | 49.29979 | 421 ft | 10 kts | 45° |
| 2026-05-01 08:20 | 55.60682 | 49.30008 | 421 ft | 0 kts | 36° |
| 2026-05-01 08:21 | 55.60685 | 49.30011 | 421 ft | 1 kts | 36° |
| 2026-05-01 08:21 | 55.60686 | 49.30014 | 421 ft | 0 kts | 36° |